UA3678 / N654RW 7700 Squawk Report (4th of December, 2021)

Aircraft E170 Reg No. N654RW Age N/A
Model Emb-170 Jet engines 2 First flight 10-05
Registered 09-06-16 Rollout 10-05 Delivered 02-11-05
Construction No. 17000104 Line No. N/A Series 100SE
ADSHEX A89D22 Airline name United Express Owner Republic Airways
Airfield based Indianapolis-International~IN~N First tracked N/A

Flight history for N654RW

Route Flight No Date Playback
Newark Liberty Intl (EWR) - Raleigh Durham Intl (RDU) UA3418 2022-01-20 22:32:00
Charlotte Douglas (CLT) - Newark Liberty Intl (EWR) UA3680 2022-01-20 20:58:00
Charleston Afb Intl (CHS) - Charlotte Douglas (CLT) UA3311 2022-01-20 15:53:00
Newark Liberty Intl (EWR) - Charleston Afb Intl (CHS) UA3503 2022-01-20 04:04:00
Charlotte Douglas (CLT) - Newark Liberty Intl (EWR) UA3438 2022-01-20 02:18:00
Newark Liberty Intl (EWR) - Charlotte Douglas (CLT) UA3429 2022-01-19 21:57:00
Nashville Intl (BNA) - Newark Liberty Intl (EWR) UA3424 2022-01-19 20:11:00
Newark Liberty Intl (EWR) - Nashville Intl (BNA) UA3473 2022-01-19 04:55:00
Cleveland Hopkins Intl (CLE) - Newark Liberty Intl (EWR) UA3469 2022-01-19 01:16:00
Newark Liberty Intl (EWR) - Cleveland Hopkins Intl (CLE) UA3535 2022-01-18 23:35:00
Memphis Intl (MEM) - Newark Liberty Intl (EWR) UA3628 2022-01-18 19:47:00
Chicago Ohare Intl (ORD) - Memphis Intl (MEM) UA3658 2022-01-18 17:34:00
Pittsburgh Intl (PIT) - Chicago Ohare Intl (ORD) UA3591 2022-01-18 14:59:00
Southwest Florida Intl (RSW) - Pittsburgh Intl (PIT) UA3458 2022-01-15 20:57:00
Pittsburgh Intl (PIT) - Southwest Florida Intl (RSW) UA3496 2022-01-15 17:25:00
Sarasota Bradenton (SRQ) - Pittsburgh Intl (PIT) UA3308 2022-01-15 01:20:00
Newark Liberty Intl (EWR) - Sarasota Bradenton (SRQ) UA3498 2022-01-14 23:10:00
Savannah Hilton Head Intl (SAV) - Newark Liberty Intl (EWR) UA3667 2022-01-14 16:41:00
Pittsburgh Intl (PIT) - Savannah Hilton Head Intl (SAV) UA3309 2022-01-14 00:51:00
Newark Liberty Intl (EWR) - Pittsburgh Intl (PIT) UA3462 2022-01-13 03:37:00
Time Lat Lon Altitude Heading Speed Vertical Rate
2021-12-04 20:00:43 GMT 25.790100 -80.277657 0 173 1 -288
2021-12-04 20:00:41 GMT 25.790091 -80.277657 0 173 1 -288
2021-12-04 20:00:40 GMT 25.790079 -80.277657 0 173 1 -288
2021-12-04 20:00:38 GMT 25.790030 -80.277687 0 173 1 -288
2021-12-04 20:00:37 GMT 25.790020 -80.277687 0 172 1 -288
2021-12-04 20:00:36 GMT 25.790001 -80.277702 0 172 2 -288
2021-12-04 20:00:34 GMT 25.789989 -80.277679 0 171 3 -288
2021-12-04 20:00:33 GMT 25.790001 -80.277672 0 171 2 -288
2021-12-04 20:00:32 GMT 25.790020 -80.277657 0 170 2 -288
2021-12-04 20:00:31 GMT 25.790060 -80.277649 0 170 1 -288
2021-12-04 20:00:29 GMT 25.790091 -80.277641 0 170 0 -288
2021-12-04 20:00:26 GMT 25.790110 -80.277641 0 170 0 -288
2021-12-04 20:00:25 GMT 25.790110 -80.277634 0 170 0 -288
2021-12-04 20:00:23 GMT 25.790100 -80.277634 0 170 1 -288
2021-12-04 20:00:22 GMT 25.790119 -80.277641 0 170 0 -288
2021-12-04 20:00:21 GMT 25.790131 -80.277641 0 170 0 -288
2021-12-04 20:00:20 GMT 25.790140 -80.277649 0 170 0 -288
2021-12-04 20:00:16 GMT 25.790131 -80.277641 0 170 0 -288
2021-12-04 20:00:15 GMT 25.790131 -80.277649 0 170 0 -288
2021-12-04 20:00:10 GMT 25.790140 -80.277641 0 172 1 -288
2021-12-04 20:00:08 GMT 25.790140 -80.277649 0 176 1 -288
2021-12-04 20:00:06 GMT 25.790131 -80.277657 0 179 1 -288
2021-12-04 20:00:05 GMT 25.790119 -80.277672 0 179 1 -288
2021-12-04 20:00:04 GMT 25.790110 -80.277679 0 179 1 -288
2021-12-04 20:00:03 GMT 25.790100 -80.277710 0 177 1 -288
2021-12-04 20:00:01 GMT 25.790079 -80.277733 0 176 1 -288
2021-12-04 20:00:00 GMT 25.790051 -80.277733 0 175 2 -288
2021-12-04 19:59:59 GMT 25.790010 -80.277702 0 173 2 -288
2021-12-04 19:59:57 GMT 25.790001 -80.277679 0 173 2 -288
2021-12-04 19:59:56 GMT 25.790001 -80.277657 0 173 2 -288
2021-12-04 19:59:55 GMT 25.790020 -80.277634 0 172 2 -288
2021-12-04 19:59:53 GMT 25.790051 -80.277618 0 172 2 -288
2021-12-04 19:59:52 GMT 25.790100 -80.277641 0 172 0 -288
2021-12-04 19:59:46 GMT 25.790119 -80.277649 0 172 0 -288
2021-12-04 19:59:45 GMT 25.790131 -80.277649 0 171 0 -288
2021-12-04 19:59:39 GMT 25.790131 -80.277641 0 168 0 -288
2021-12-04 19:59:38 GMT 25.790140 -80.277641 0 168 0 -288
2021-12-04 19:59:37 GMT 25.790140 -80.277634 0 168 0 -288
2021-12-04 19:59:35 GMT 25.790140 -80.277634 0 168 0 -288
2021-12-04 19:59:33 GMT 25.790131 -80.277634 0 168 0 -288
2021-12-04 19:59:32 GMT 25.790131 -80.277618 0 167 0 -288
2021-12-04 19:59:31 GMT 25.790140 -80.277611 0 166 0 -288
2021-12-04 19:59:30 GMT 25.790140 -80.277603 0 166 0 -288
2021-12-04 19:59:27 GMT 25.790140 -80.277588 0 168 1 -288
2021-12-04 19:59:25 GMT 25.790119 -80.277634 0 169 0 -288
2021-12-04 19:59:22 GMT 25.790119 -80.277641 0 170 0 -288
2021-12-04 19:58:30 GMT 25.790119 -80.277649 0 170 0 -288
2021-12-04 19:58:21 GMT 25.790119 -80.277634 0 161 0 -288
2021-12-04 19:58:18 GMT 25.790119 -80.277634 0 161 0 -288
2021-12-04 19:58:15 GMT 25.790119 -80.277634 0 161 0 -288
2021-12-04 19:58:13 GMT 25.790119 -80.277649 0 161 0 -288
2021-12-04 19:58:12 GMT 25.790110 -80.277641 0 161 0 -288
2021-12-04 19:58:09 GMT 25.790110 -80.277641 0 161 0 -288
2021-12-04 19:58:08 GMT 25.790100 -80.277641 0 161 0 -288
2021-12-04 19:58:06 GMT 25.790100 -80.277657 0 161 0 -288
2021-12-04 19:58:05 GMT 25.790091 -80.277672 0 161 0 -288
2021-12-04 19:58:04 GMT 25.790079 -80.277672 0 161 1 -288
2021-12-04 19:58:02 GMT 25.790079 -80.277679 0 161 1 -288
2021-12-04 19:58:00 GMT 25.790110 -80.277672 0 159 0 -288
2021-12-04 19:57:58 GMT 25.790110 -80.277672 0 159 0 -288
2021-12-04 19:57:57 GMT 25.790119 -80.277672 0 159 0 -288
2021-12-04 19:57:56 GMT 25.790119 -80.277657 0 158 0 -288
2021-12-04 19:57:52 GMT 25.790119 -80.277641 0 155 0 -288
2021-12-04 19:57:51 GMT 25.790119 -80.277634 0 155 0 -288
2021-12-04 19:57:48 GMT 25.790131 -80.277641 0 155 1 -288
2021-12-04 19:57:47 GMT 25.790140 -80.277634 0 156 1 -288
2021-12-04 19:57:45 GMT 25.790119 -80.277649 0 158 0 -288
2021-12-04 19:57:43 GMT 25.790110 -80.277649 0 160 0 -288
2021-12-04 19:57:42 GMT 25.790110 -80.277657 0 160 1 -288
2021-12-04 19:57:40 GMT 25.790070 -80.277657 0 160 0 -288
2021-12-04 19:57:39 GMT 25.790060 -80.277657 0 160 1 -288
2021-12-04 19:57:38 GMT 25.790051 -80.277657 0 160 1 -288
2021-12-04 19:57:37 GMT 25.790030 -80.277672 0 159 2 -288
2021-12-04 19:57:35 GMT 25.790060 -80.277641 0 159 1 -288
2021-12-04 19:57:33 GMT 25.790091 -80.277641 0 158 0 -288
2021-12-04 19:57:32 GMT 25.790131 -80.277649 0 158 0 -288
2021-12-04 19:57:30 GMT 25.790131 -80.277649 0 158 0 -288
2021-12-04 19:57:28 GMT 25.790131 -80.277641 0 159 0 -288
2021-12-04 19:57:25 GMT 25.790131 -80.277649 0 162 1 -288
2021-12-04 19:57:24 GMT 25.790119 -80.277657 0 165 0 -288
2021-12-04 19:57:21 GMT 25.790110 -80.277657 0 165 0 -288
2021-12-04 19:57:19 GMT 25.790070 -80.277702 0 164 1 -288
2021-12-04 19:57:18 GMT 25.790030 -80.277733 0 162 2 -288
2021-12-04 19:57:15 GMT 25.790039 -80.277718 0 161 2 -288
2021-12-04 19:57:14 GMT 25.790060 -80.277702 0 160 2 -288
2021-12-04 19:57:12 GMT 25.790060 -80.277687 0 160 2 -288
2021-12-04 19:57:11 GMT 25.790070 -80.277679 0 159 2 -288
2021-12-04 19:57:10 GMT 25.790091 -80.277657 0 158 1 -288
2021-12-04 19:57:08 GMT 25.790110 -80.277657 0 157 1 -288
2021-12-04 19:57:07 GMT 25.790119 -80.277649 0 156 1 -288
2021-12-04 19:57:06 GMT 25.790119 -80.277641 0 155 1 -288
2021-12-04 19:57:05 GMT 25.790119 -80.277634 0 154 1 -288
2021-12-04 19:57:03 GMT 25.790131 -80.277611 0 152 0 -288
2021-12-04 19:57:00 GMT 25.790140 -80.277580 0 152 0 -288
2021-12-04 19:56:58 GMT 25.790140 -80.277580 0 153 0 -288
2021-12-04 19:56:56 GMT 25.790140 -80.277603 0 153 0 -288
2021-12-04 19:56:54 GMT 25.790140 -80.277603 0 154 1 -288
2021-12-04 19:56:51 GMT 25.790150 -80.277580 0 156 2 -288
2021-12-04 19:56:50 GMT 25.790150 -80.277603 0 158 2 -288
2021-12-04 19:56:48 GMT 25.790140 -80.277611 0 159 2 -288
2021-12-04 19:56:47 GMT 25.790131 -80.277634 0 160 1 -288
2021-12-04 19:56:46 GMT 25.790119 -80.277657 0 160 1 -288
2021-12-04 19:56:44 GMT 25.790100 -80.277679 0 160 1 -288
2021-12-04 19:56:43 GMT 25.790091 -80.277718 0 159 1 -288
2021-12-04 19:56:42 GMT 25.790070 -80.277710 0 157 1 -288
2021-12-04 19:56:41 GMT 25.790060 -80.277687 0 155 1 -288
2021-12-04 19:56:39 GMT 25.790060 -80.277679 0 154 1 -288
2021-12-04 19:56:37 GMT 25.790051 -80.277672 0 153 1 -288
2021-12-04 19:56:36 GMT 25.790051 -80.277657 0 152 1 -288
2021-12-04 19:56:35 GMT 25.790060 -80.277641 0 151 1 -288
2021-12-04 19:56:34 GMT 25.790079 -80.277634 0 150 1 -288
2021-12-04 19:56:31 GMT 25.790091 -80.277618 0 149 0 -288
2021-12-04 19:56:27 GMT 25.790110 -80.277611 0 149 0 -288
2021-12-04 19:56:26 GMT 25.790119 -80.277611 0 149 0 -288
2021-12-04 19:56:24 GMT 25.790131 -80.277611 0 149 1 -288
2021-12-04 19:56:23 GMT 25.790140 -80.277611 0 150 1 -288
2021-12-04 19:56:21 GMT 25.790131 -80.277618 0 153 1 -288
2021-12-04 19:56:20 GMT 25.790140 -80.277611 0 155 2 -288
2021-12-04 19:56:18 GMT 25.790110 -80.277641 0 158 2 -288
2021-12-04 19:56:16 GMT 25.790100 -80.277649 0 158 2 -288
2021-12-04 19:56:15 GMT 25.790079 -80.277679 0 158 2 -288
2021-12-04 19:56:13 GMT 25.790051 -80.277679 0 154 2 -288
2021-12-04 19:56:12 GMT 25.790039 -80.277679 0 153 2 -288
2021-12-04 19:56:11 GMT 25.789989 -80.277679 0 150 2 -288
2021-12-04 19:56:09 GMT 25.789970 -80.277672 0 149 2 -288
2021-12-04 19:56:07 GMT 25.789949 -80.277634 0 147 2 -288
2021-12-04 19:56:05 GMT 25.789940 -80.277557 0 146 2 -288
2021-12-04 19:56:04 GMT 25.789949 -80.277573 0 145 2 -288
2021-12-04 19:56:03 GMT 25.789940 -80.277496 0 145 2 -288
2021-12-04 19:56:01 GMT 25.789961 -80.277512 0 144 2 -288
2021-12-04 19:56:00 GMT 25.789970 -80.277512 0 144 2 -288
2021-12-04 19:55:59 GMT 25.789980 -80.277512 0 144 2 -288
2021-12-04 19:55:57 GMT 25.790030 -80.277428 0 143 3 -288
2021-12-04 19:55:56 GMT 25.790070 -80.277351 0 143 3 -288
2021-12-04 19:55:55 GMT 25.790119 -80.277260 0 143 3 -288
2021-12-04 19:55:53 GMT 25.790211 -80.277168 0 142 3 -288
2021-12-04 19:55:52 GMT 25.790239 -80.277184 0 142 3 -288
2021-12-04 19:55:51 GMT 25.790251 -80.277184 0 142 3 -288
2021-12-04 19:55:49 GMT 25.790251 -80.277199 0 139 4 -288
2021-12-04 19:55:48 GMT 25.790260 -80.277206 0 135 4 -288
2021-12-04 19:55:47 GMT 25.790279 -80.277199 0 131 5 -288
2021-12-04 19:55:45 GMT 25.790319 -80.277252 0 136 4 -288
2021-12-04 19:55:44 GMT 25.790331 -80.277260 0 140 4 -288
2021-12-04 19:55:43 GMT 25.790340 -80.277290 0 132 5 -288
2021-12-04 19:55:41 GMT 25.790380 -80.277260 0 129 6 -288
2021-12-04 19:55:40 GMT 25.790371 -80.277298 0 134 7 -288
2021-12-04 19:55:39 GMT 25.790409 -80.277359 0 124 7 -288
2021-12-04 19:55:37 GMT 25.790421 -80.277367 0 110 8 -288
2021-12-04 19:55:36 GMT 25.790470 -80.277390 0 88 7 -288
2021-12-04 19:55:35 GMT 25.790541 -80.277451 0 22 6 -288
2021-12-04 19:55:33 GMT 25.790560 -80.277481 0 0 4 -288
2021-12-04 19:55:32 GMT 25.790560 -80.277496 0 357 4 -288
2021-12-04 19:55:30 GMT 25.790569 -80.277557 0 344 5 -288
2021-12-04 19:55:29 GMT 25.790480 -80.277580 0 313 7 -288
2021-12-04 19:55:28 GMT 25.790279 -80.277611 0 260 7 -288
2021-12-04 19:55:18 GMT 25.790590 -80.277931 0 23 10 -288
2021-12-04 19:55:17 GMT 25.790501 -80.277977 0 23 10 -288
2021-12-04 19:55:15 GMT 25.790461 -80.278000 0 23 10 -288
2021-12-04 19:55:14 GMT 25.790421 -80.278030 0 21 11 -288
2021-12-04 19:55:13 GMT 25.790390 -80.278069 0 18 11 -288
2021-12-04 19:55:11 GMT 25.790300 -80.278091 0 20 12 -288
2021-12-04 19:55:10 GMT 25.790270 -80.278091 0 25 14 -288
2021-12-04 19:55:09 GMT 25.790140 -80.278152 0 24 13 -288
2021-12-04 19:55:07 GMT 25.790070 -80.278198 0 22 11 -288
2021-12-04 19:55:05 GMT 25.790001 -80.278229 0 22 14 -288
2021-12-04 19:55:04 GMT 25.789930 -80.278252 0 25 13 -288
2021-12-04 19:55:03 GMT 25.789900 -80.278290 0 20 14 -288
2021-12-04 19:55:02 GMT 25.789820 -80.278343 0 20 12 -288
2021-12-04 19:55:00 GMT 25.789690 -80.278381 0 42 9 -288
2021-12-04 19:54:59 GMT 25.789650 -80.278374 0 52 11 -288
2021-12-04 19:54:58 GMT 25.789631 -80.278397 0 48 13 -288
2021-12-04 19:54:56 GMT 25.789560 -80.278503 0 54 12 -288
2021-12-04 19:54:55 GMT 25.789520 -80.278519 0 62 15 -288
2021-12-04 19:54:54 GMT 25.789471 -80.278587 0 68 15 -288
2021-12-04 19:54:53 GMT 25.789431 -80.278679 0 75 13 -288
2021-12-04 19:54:51 GMT 25.789410 -80.278778 0 76 15 -288
2021-12-04 19:54:50 GMT 25.789391 -80.278870 0 76 13 -288
2021-12-04 19:54:49 GMT 25.789360 -80.279007 0 77 15 -288
2021-12-04 19:54:47 GMT 25.789339 -80.279060 0 81 17 -288
2021-12-04 19:54:46 GMT 25.789330 -80.279152 0 81 18 -288
2021-12-04 19:54:44 GMT 25.789310 -80.279320 0 82 16 -288
2021-12-04 19:54:43 GMT 25.789310 -80.279404 0 78 16 -288
2021-12-04 19:54:42 GMT 25.789289 -80.279480 0 79 16 -288
2021-12-04 19:54:40 GMT 25.789280 -80.279640 0 75 18 -288
2021-12-04 19:54:39 GMT 25.789249 -80.279732 0 77 18 -288
2021-12-04 19:54:38 GMT 25.789200 -80.279907 0 81 17 -288
2021-12-04 19:54:36 GMT 25.789200 -80.279999 0 76 17 -288
2021-12-04 19:54:35 GMT 25.789169 -80.280083 0 81 16 -288
2021-12-04 19:54:34 GMT 25.789160 -80.280251 0 72 17 -288
2021-12-04 19:54:32 GMT 25.789141 -80.280327 0 70 18 -288
2021-12-04 19:54:31 GMT 25.789110 -80.280403 0 76 19 -288
2021-12-04 19:54:29 GMT 25.789061 -80.280586 0 80 15 -288
2021-12-04 19:54:28 GMT 25.789030 -80.280647 0 87 18 -288
2021-12-04 19:54:27 GMT 25.789009 -80.280739 0 91 17 -288
2021-12-04 19:54:26 GMT 25.789030 -80.280907 0 86 18 -288
2021-12-04 19:54:24 GMT 25.789021 -80.280998 0 83 19 -288
2021-12-04 19:54:23 GMT 25.789030 -80.281082 0 82 22 -288
2021-12-04 19:54:21 GMT 25.789000 -80.281303 0 83 20 -288
2021-12-04 19:54:20 GMT 25.788990 -80.281387 0 84 21 -288
2021-12-04 19:54:19 GMT 25.788980 -80.281502 0 83 20 -288
2021-12-04 19:54:17 GMT 25.788950 -80.281708 0 86 20 -288
2021-12-04 19:54:16 GMT 25.788940 -80.281807 0 87 20 -288
2021-12-04 19:54:15 GMT 25.788931 -80.281914 0 88 20 -288
2021-12-04 19:54:14 GMT 25.788940 -80.282120 0 80 21 -288
2021-12-04 19:54:12 GMT 25.788900 -80.282219 0 86 20 -288
2021-12-04 19:54:11 GMT 25.788879 -80.282341 0 91 19 -288
2021-12-04 19:54:10 GMT 25.788870 -80.282433 0 96 20 -288
2021-12-04 19:54:08 GMT 25.788910 -80.282631 0 85 17 -288
2021-12-04 19:54:07 GMT 25.788900 -80.282707 0 86 19 -288
2021-12-04 19:54:05 GMT 25.788891 -80.282898 0 87 20 -288
2021-12-04 19:54:04 GMT 25.788891 -80.282990 0 85 21 -288
2021-12-04 19:54:03 GMT 25.788860 -80.283112 0 90 20 -288
2021-12-04 19:54:02 GMT 25.788860 -80.283218 0 90 19 -288
2021-12-04 19:54:00 GMT 25.788879 -80.283409 0 84 19 -288
2021-12-04 19:53:59 GMT 25.788851 -80.283508 0 89 19 -288
2021-12-04 19:53:58 GMT 25.788851 -80.283630 0 91 16 -288
2021-12-04 19:53:56 GMT 25.788879 -80.283768 0 84 21 -288
2021-12-04 19:53:55 GMT 25.788870 -80.283897 0 81 19 -288
2021-12-04 19:53:54 GMT 25.788830 -80.284103 0 88 20 -288
2021-12-04 19:53:52 GMT 25.788851 -80.284187 0 82 20 -288
2021-12-04 19:53:51 GMT 25.788811 -80.284309 0 89 18 -288
2021-12-04 19:53:49 GMT 25.788820 -80.284470 0 86 22 -288
2021-12-04 19:53:48 GMT 25.788811 -80.284592 0 86 20 -288
2021-12-04 19:53:47 GMT 25.788820 -80.284668 0 84 23 -288
2021-12-04 19:53:45 GMT 25.788780 -80.284920 0 92 19 -288
2021-12-04 19:53:43 GMT 25.788780 -80.285118 0 91 15 -288
2021-12-04 19:53:42 GMT 25.788780 -80.285179 0 91 18 -288
2021-12-04 19:53:41 GMT 25.788799 -80.285263 0 85 21 -288
2021-12-04 19:53:40 GMT 25.788790 -80.285469 0 85 18 -288
2021-12-04 19:53:38 GMT 25.788790 -80.285538 0 84 20 -288
2021-12-04 19:53:37 GMT 25.788780 -80.285667 0 84 15 -288
2021-12-04 19:53:36 GMT 25.788740 -80.285751 0 95 15 -288
2021-12-04 19:53:35 GMT 25.788780 -80.285889 0 83 20 -288
2021-12-04 19:53:33 GMT 25.788771 -80.286011 0 83 18 -288
2021-12-04 19:53:32 GMT 25.788731 -80.286110 0 92 16 -288
2021-12-04 19:53:31 GMT 25.788731 -80.286201 0 92 15 -288
2021-12-04 19:53:29 GMT 25.788759 -80.286339 0 80 16 -288
2021-12-04 19:53:28 GMT 25.788750 -80.286423 0 80 17 -288
2021-12-04 19:53:27 GMT 25.788719 -80.286499 0 85 18 -288
2021-12-04 19:53:25 GMT 25.788691 -80.286690 0 93 15 -288
2021-12-04 19:53:24 GMT 25.788679 -80.286781 0 96 14 -288
2021-12-04 19:53:23 GMT 25.788700 -80.286850 0 90 14 -288
2021-12-04 19:53:21 GMT 25.788691 -80.287003 0 94 14 -288
2021-12-04 19:53:20 GMT 25.788700 -80.287117 0 93 16 -288
2021-12-04 19:53:18 GMT 25.788740 -80.287277 0 83 14 -288
2021-12-04 19:53:16 GMT 25.788719 -80.287338 0 86 15 -288
2021-12-04 19:53:15 GMT 25.788719 -80.287399 0 88 17 -288
2021-12-04 19:53:14 GMT 25.788719 -80.287590 0 83 15 -288
2021-12-04 19:53:12 GMT 25.788700 -80.287659 0 91 14 -288
2021-12-04 19:53:11 GMT 25.788691 -80.287743 0 93 14 -288
2021-12-04 19:53:10 GMT 25.788719 -80.287872 0 84 17 -288
2021-12-04 19:53:08 GMT 25.788719 -80.287979 0 83 13 -288
2021-12-04 19:53:07 GMT 25.788700 -80.288040 0 85 14 -288
2021-12-04 19:53:06 GMT 25.788691 -80.288177 0 83 14 -288
2021-12-04 19:53:04 GMT 25.788679 -80.288254 0 86 14 -288
2021-12-04 19:53:03 GMT 25.788660 -80.288322 0 91 16 -288
2021-12-04 19:53:02 GMT 25.788691 -80.288483 0 78 15 -288
2021-12-04 19:53:00 GMT 25.788670 -80.288559 0 75 13 -288
2021-12-04 19:52:59 GMT 25.788679 -80.288620 0 72 15 -288
2021-12-04 19:52:57 GMT 25.788630 -80.288742 0 77 15 -288
2021-12-04 19:52:56 GMT 25.788651 -80.288780 0 71 19 -288
2021-12-04 19:52:55 GMT 25.788580 -80.288879 0 84 16 -288
2021-12-04 19:52:53 GMT 25.788549 -80.289062 0 82 13 -288
2021-12-04 19:52:52 GMT 25.788561 -80.289101 0 78 17 -288
2021-12-04 19:52:51 GMT 25.788580 -80.289177 0 69 18 -288
2021-12-04 19:52:49 GMT 25.788521 -80.289360 0 67 17 -288
2021-12-04 19:52:48 GMT 25.788490 -80.289452 0 68 15 -288
2021-12-04 19:52:47 GMT 25.788441 -80.289574 0 68 18 -288
2021-12-04 19:52:45 GMT 25.788410 -80.289642 0 71 19 -288
2021-12-04 19:52:44 GMT 25.788370 -80.289742 0 75 19 -288
2021-12-04 19:52:42 GMT 25.788321 -80.289909 0 80 19 -288
2021-12-04 19:52:41 GMT 25.788290 -80.290001 0 84 20 -288
2021-12-04 19:52:40 GMT 25.788290 -80.290192 0 81 21 -288
2021-12-04 19:52:38 GMT 25.788250 -80.290298 0 90 21 -288
2021-12-04 19:52:37 GMT 25.788210 -80.290398 0 96 22 -288
2021-12-04 19:52:36 GMT 25.788240 -80.290627 0 86 20 -288
2021-12-04 19:52:34 GMT 25.788250 -80.290718 0 81 21 -288
2021-12-04 19:52:33 GMT 25.788231 -80.290833 0 78 21 -288
2021-12-04 19:52:31 GMT 25.788200 -80.291054 0 67 20 -288
2021-12-04 19:52:30 GMT 25.788160 -80.291153 0 65 20 -288
2021-12-04 19:52:29 GMT 25.788151 -80.291252 0 60 21 -288
2021-12-04 19:52:28 GMT 25.788099 -80.291458 0 40 23 -288
2021-12-04 19:52:26 GMT 25.788031 -80.291542 0 42 24 -288
2021-12-04 19:52:25 GMT 25.787930 -80.291634 0 45 23 -288
2021-12-04 19:52:24 GMT 25.787781 -80.291809 0 51 24 -288
2021-12-04 19:52:22 GMT 25.787729 -80.291893 0 53 26 -288
2021-12-04 19:52:21 GMT 25.787670 -80.291969 0 55 29 -288
2021-12-04 19:52:20 GMT 25.787510 -80.292229 0 61 30 -288
2021-12-04 19:52:18 GMT 25.787460 -80.292320 0 65 34 -288
2021-12-04 19:52:17 GMT 25.787390 -80.292480 0 67 33 -288
2021-12-04 19:52:15 GMT 25.787260 -80.292801 0 73 34 -288
2021-12-04 19:52:14 GMT 25.787201 -80.292961 0 78 35 -288
2021-12-04 19:52:13 GMT 25.787161 -80.293121 0 80 38 -288
2021-12-04 19:52:11 GMT 25.787109 -80.293518 0 78 36 -288
2021-12-04 19:52:10 GMT 25.787069 -80.293716 0 80 34 -288
2021-12-04 19:52:08 GMT 25.786989 -80.294060 0 87 40 -288
2021-12-04 19:52:07 GMT 25.786961 -80.294258 0 90 42 -288
2021-12-04 19:52:06 GMT 25.786949 -80.294472 -175 89 43 -288
2021-12-04 19:52:04 GMT 25.786970 -80.294899 -175 86 48 0
2021-12-04 19:52:03 GMT 25.786961 -80.295174 -175 86 48 0
2021-12-04 19:52:02 GMT 25.786921 -80.295433 -175 88 48 0
2021-12-04 19:52:01 GMT 25.786921 -80.295670 -175 87 51 0
2021-12-04 19:52:00 GMT 25.786921 -80.296188 -175 86 56 0
2021-12-04 19:51:58 GMT 25.786880 -80.296478 -175 87 58 0
2021-12-04 19:51:57 GMT 25.786880 -80.296768 -175 87 61 0
2021-12-04 19:51:55 GMT 25.786850 -80.297409 -175 87 65 0
2021-12-04 19:51:54 GMT 25.786810 -80.297737 -175 88 67 0
2021-12-04 19:51:53 GMT 25.786800 -80.298058 -175 88 71 0
2021-12-04 19:51:51 GMT 25.786810 -80.298828 -175 86 75 0
2021-12-04 19:51:50 GMT 25.786770 -80.299210 -175 87 78 0
2021-12-04 19:51:49 GMT 25.786770 -80.299583 -175 87 83 0
2021-12-04 19:51:47 GMT 25.786730 -80.300430 -175 87 90 0
2021-12-04 19:51:46 GMT 25.786699 -80.300880 -175 87 94 0
2021-12-04 19:51:45 GMT 25.786680 -80.301849 -175 87 102 0
2021-12-04 19:51:43 GMT 25.786650 -80.302338 -175 87 107 0
2021-12-04 19:51:42 GMT 25.786600 -80.302872 -175 88 111 0
2021-12-04 19:51:41 GMT 25.786570 -80.303978 -175 88 117 0
2021-12-04 19:51:39 GMT 25.786551 -80.304558 -175 88 120 0
2021-12-04 19:51:38 GMT 25.786551 -80.305168 -175 87 122 -576
2021-12-04 19:51:37 GMT 25.786539 -80.306412 -175 86 125 -576
2021-12-04 19:51:35 GMT 25.786489 -80.307037 -175 87 126 -576
2021-12-04 19:51:34 GMT 25.786461 -80.307678 -175 86 128 -576
2021-12-04 19:51:33 GMT 25.786369 -80.308990 -150 87 129 -576
2021-12-04 19:51:31 GMT 25.786360 -80.309647 -150 87 130 -576
2021-12-04 19:51:30 GMT 25.786320 -80.310303 -125 87 130 -576
2021-12-04 19:51:28 GMT 25.786240 -80.311623 -100 88 132 -576
2021-12-04 19:51:27 GMT 25.786221 -80.312302 -100 88 133 -576
2021-12-04 19:51:26 GMT 25.786240 -80.313004 -50 87 130 -576
2021-12-04 19:51:24 GMT 25.786200 -80.314362 -50 85 127 -576
2021-12-04 19:51:23 GMT 25.786140 -80.314957 -50 87 135 -576
2021-12-04 19:51:21 GMT 25.786070 -80.316338 0 87 131 -576
2021-12-04 19:51:20 GMT 25.786051 -80.317032 0 87 128 -576
2021-12-04 19:51:19 GMT 25.785999 -80.317734 25 88 124 -576
2021-12-04 19:51:18 GMT 25.785999 -80.319000 50 85 128 -576
2021-12-04 19:51:16 GMT 25.785940 -80.319649 50 86 129 -576
2021-12-04 19:51:15 GMT 25.785900 -80.320328 50 88 128 -576
2021-12-04 19:51:14 GMT 25.785830 -80.321632 75 89 128 -576
2021-12-04 19:51:12 GMT 25.785839 -80.322289 100 88 128 -576
2021-12-04 19:51:11 GMT 25.785839 -80.322937 100 86 129 -576
2021-12-04 19:51:10 GMT 25.785820 -80.323631 100 85 126 -576
2021-12-04 19:51:08 GMT 25.785730 -80.324928 125 85 124 -576
2021-12-04 19:51:07 GMT 25.785650 -80.325546 150 88 126 -576
2021-12-04 19:51:05 GMT 25.785610 -80.326851 225 87 125 -576
2021-12-04 19:51:04 GMT 25.785620 -80.327477 225 84 127 -576
2021-12-04 19:51:03 GMT 25.785509 -80.328117 225 88 128 -768
2021-12-04 19:51:01 GMT 25.785480 -80.329391 225 88 133 -768
2021-12-04 19:51:00 GMT 25.785460 -80.330070 250 88 133 -768
2021-12-04 19:50:59 GMT 25.785431 -80.331467 250 86 128 -768
2021-12-04 19:50:57 GMT 25.785360 -80.332138 300 87 127 -768
2021-12-04 19:50:56 GMT 25.785299 -80.332779 275 89 129 -768
2021-12-04 19:50:55 GMT 25.785290 -80.334099 325 87 130 -768
2021-12-04 19:50:53 GMT 25.785280 -80.334747 325 87 131 -768
2021-12-04 19:50:52 GMT 25.785290 -80.335411 300 85 133 -768
2021-12-04 19:50:50 GMT 25.785130 -80.336807 500 87 130 -768
2021-12-04 19:50:48 GMT 25.785049 -80.338142 500 87 131 -768
2021-12-04 19:50:47 GMT 25.785021 -80.338814 500 88 130 -768
2021-12-04 19:50:46 GMT 25.785000 -80.339470 500 87 131 -768
2021-12-04 19:50:44 GMT 25.784960 -80.340790 500 88 133 -768
2021-12-04 19:50:43 GMT 25.784941 -80.341461 500 87 134 -768
2021-12-04 19:50:42 GMT 25.784929 -80.342171 500 87 132 -768
2021-12-04 19:50:40 GMT 25.784889 -80.343498 500 87 134 -768
2021-12-04 19:50:39 GMT 25.784861 -80.344193 500 87 134 -768
2021-12-04 19:50:38 GMT 25.784840 -80.344849 500 87 136 -768
2021-12-04 19:50:36 GMT 25.784781 -80.346230 600 87 136 -768
2021-12-04 19:50:35 GMT 25.784731 -80.346916 600 87 136 -768
2021-12-04 19:50:34 GMT 25.784700 -80.347588 600 87 138 -768
2021-12-04 19:50:32 GMT 25.784639 -80.349022 600 87 138 -768
2021-12-04 19:50:31 GMT 25.784611 -80.349770 600 88 134 -768
2021-12-04 19:50:30 GMT 25.784599 -80.350418 600 87 136 -768
2021-12-04 19:50:29 GMT 25.784571 -80.351097 600 87 138 -768
2021-12-04 19:50:27 GMT 25.784519 -80.352562 700 88 134 -768
2021-12-04 19:50:26 GMT 25.784500 -80.353249 700 88 135 -768
2021-12-04 19:50:25 GMT 25.784460 -80.354630 700 88 134 -768
2021-12-04 19:50:23 GMT 25.784430 -80.355324 700 88 134 -768
2021-12-04 19:50:22 GMT 25.784430 -80.356010 700 87 134 -768
2021-12-04 19:50:21 GMT 25.784370 -80.357368 700 88 135 -768
2021-12-04 19:50:19 GMT 25.784361 -80.358093 900 88 133 -768
2021-12-04 19:50:18 GMT 25.784321 -80.359459 900 87 133 -768
2021-12-04 19:50:16 GMT 25.784290 -80.360138 900 87 133 -768
2021-12-04 19:50:15 GMT 25.784290 -80.360832 900 87 133 -768
2021-12-04 19:50:13 GMT 25.784220 -80.362862 900 86 135 -768
2021-12-04 19:50:11 GMT 25.784180 -80.363533 900 87 135 -768
2021-12-04 19:50:09 GMT 25.784140 -80.364861 900 86 139 -768
2021-12-04 19:50:08 GMT 25.784100 -80.365570 900 86 139 -768
2021-12-04 19:50:07 GMT 25.784050 -80.366310 900 86 138 -768
2021-12-04 19:50:06 GMT 25.783960 -80.367699 1,000 87 139 -768
2021-12-04 19:50:04 GMT 25.783939 -80.368423 1,000 86 139 -768
2021-12-04 19:50:03 GMT 25.783911 -80.369118 1,000 86 140 -768
2021-12-04 19:50:01 GMT 25.783819 -80.370590 1,000 86 137 -64
2021-12-04 19:50:00 GMT 25.783779 -80.371300 1,000 87 137 -64
2021-12-04 19:49:59 GMT 25.783730 -80.371964 1,000 87 141 -64
2021-12-04 19:49:57 GMT 25.783670 -80.373390 1,000 87 142 -64
2021-12-04 19:49:56 GMT 25.783649 -80.374130 1,100 87 142 -64
2021-12-04 19:49:55 GMT 25.783621 -80.374847 1,100 87 143 -64
2021-12-04 19:49:54 GMT 25.783541 -80.376312 1,100 87 143 -64
2021-12-04 19:49:52 GMT 25.783520 -80.377037 1,100 87 144 -64
2021-12-04 19:49:51 GMT 25.783489 -80.377808 1,200 87 142 -64
2021-12-04 19:49:50 GMT 25.783421 -80.379272 1,200 87 142 -64
2021-12-04 19:49:48 GMT 25.783390 -80.379982 1,200 87 143 -64
2021-12-04 19:49:47 GMT 25.783360 -80.380722 1,200 87 143 -64
2021-12-04 19:49:46 GMT 25.783279 -80.382179 1,200 87 142 -64
2021-12-04 19:49:44 GMT 25.783260 -80.382942 1,200 87 139 -64
2021-12-04 19:49:43 GMT 25.783220 -80.384392 1,300 87 137 -64
2021-12-04 19:49:41 GMT 25.783180 -80.385101 1,300 86 137 -64
2021-12-04 19:49:40 GMT 25.783140 -80.385780 1,300 87 138 -64
2021-12-04 19:49:38 GMT 25.783070 -80.387199 1,300 87 138 -64
2021-12-04 19:49:37 GMT 25.783030 -80.387901 1,300 87 138 -64
2021-12-04 19:49:36 GMT 25.783001 -80.388634 1,300 87 136 -64
2021-12-04 19:49:35 GMT 25.782980 -80.389328 1,300 87 136 -64
2021-12-04 19:49:33 GMT 25.782940 -80.390732 1,400 87 136 -64
2021-12-04 19:49:32 GMT 25.782900 -80.391434 1,400 87 136 -64
2021-12-04 19:49:31 GMT 25.782820 -80.392822 1,400 87 138 -64
2021-12-04 19:49:29 GMT 25.782789 -80.393532 1,400 87 139 -64
2021-12-04 19:49:28 GMT 25.782770 -80.394257 1,500 87 139 -64
2021-12-04 19:49:27 GMT 25.782730 -80.394981 1,500 87 140 -64
2021-12-04 19:49:26 GMT 25.782690 -80.396339 1,500 87 148 -64
2021-12-04 19:49:24 GMT 25.782650 -80.397110 1,500 87 146 -64
2021-12-04 19:49:23 GMT 25.782591 -80.398613 1,500 87 149 -64
2021-12-04 19:49:21 GMT 25.782539 -80.399368 1,500 88 148 -64
2021-12-04 19:49:20 GMT 25.782511 -80.400108 1,500 88 150 -64
2021-12-04 19:49:19 GMT 25.782480 -80.401573 1,500 87 159 -64
2021-12-04 19:49:17 GMT 25.782471 -80.402382 1,500 87 158 -64
2021-12-04 19:49:15 GMT 25.782391 -80.403931 1,500 87 161 -64
2021-12-04 19:49:13 GMT 25.782301 -80.405602 1,600 87 154 -64
2021-12-04 19:49:12 GMT 25.782270 -80.406418 1,600 87 149 -544
2021-12-04 19:49:11 GMT 25.782240 -80.407211 1,600 87 147 -544
2021-12-04 19:49:09 GMT 25.782181 -80.408752 1,600 87 140 -544
2021-12-04 19:49:08 GMT 25.782150 -80.409523 1,600 87 136 -544
2021-12-04 19:49:07 GMT 25.782110 -80.410957 1,600 87 132 -544
2021-12-04 19:49:05 GMT 25.782080 -80.411667 1,700 87 130 -544
2021-12-04 19:49:04 GMT 25.782040 -80.412323 1,700 87 132 -544
2021-12-04 19:49:03 GMT 25.781990 -80.413620 1,700 87 137 -544
2021-12-04 19:49:01 GMT 25.781960 -80.414307 1,700 87 138 -1184
2021-12-04 19:49:00 GMT 25.781950 -80.415062 1,700 87 134 -1184
2021-12-04 19:48:58 GMT 25.781919 -80.416496 1,700 85 130 -1184
2021-12-04 19:48:49 GMT 25.781616 -80.422974 1,775 87 153 -896
2021-12-04 19:48:42 GMT 25.781342 -80.428467 1,900 87 160 -1344
2021-12-04 19:48:39 GMT 25.781235 -80.431534 2,025 87 162 -1600
2021-12-04 19:48:32 GMT 25.781002 -80.437279 2,125 87 169 -960
2021-12-04 19:48:27 GMT 25.780815 -80.441063 2,225 87 173 -1344
2021-12-04 19:48:21 GMT 25.780563 -80.445915 2,325 86 180 -832
2021-12-04 19:48:18 GMT 25.780426 -80.449677 2,375 87 185 -896
2021-12-04 19:48:08 GMT 25.779978 -80.460083 2,550 87 199 -1088
2021-12-04 19:47:59 GMT 25.779652 -80.468323 2,725 86 207 -1472
2021-12-04 19:47:56 GMT 25.779465 -80.471382 2,775 86 210 -1152
2021-12-04 19:47:48 GMT 25.778961 -80.481621 2,950 86 216 -1088
2021-12-04 19:47:37 GMT 25.778412 -80.493622 3,150 87 218 -1216
2021-12-04 19:47:30 GMT 25.778069 -80.500664 3,275 87 219 -1152
2021-12-04 19:47:25 GMT 25.777836 -80.505943 3,350 87 220 -1088
2021-12-04 19:47:19 GMT 25.777510 -80.512787 3,475 86 219 -1216
2021-12-04 19:47:16 GMT 25.777313 -80.517426 3,550 87 218 -1344
2021-12-04 19:47:08 GMT 25.776947 -80.524651 3,675 86 218 -1088
2021-12-04 19:47:04 GMT 25.776672 -80.530716 3,800 86 219 -1216
2021-12-04 19:46:58 GMT 25.776398 -80.536247 3,875 86 220 -1216
2021-12-04 19:46:52 GMT 25.776068 -80.542381 4,000 86 220 -1216
2021-12-04 19:46:43 GMT 25.775509 -80.554146 4,200 86 219 -1152
2021-12-04 19:46:32 GMT 25.774841 -80.566559 4,425 86 220 -1216
2021-12-04 19:46:27 GMT 25.774658 -80.570625 4,500 86 221 -1216
2021-12-04 19:46:23 GMT 25.774298 -80.577202 4,600 86 222 -1216
2021-12-04 19:46:20 GMT 25.774204 -80.579018 4,625 86 222 -1088
2021-12-04 19:46:16 GMT 25.773972 -80.583290 4,700 86 224 -448
2021-12-04 19:46:11 GMT 25.773560 -80.590721 4,800 86 224 -832
2021-12-04 19:46:02 GMT 25.773134 -80.599281 4,850 86 222 192
2021-12-04 19:45:58 GMT 25.772827 -80.604042 4,825 86 222 192
2021-12-04 19:45:52 GMT 25.772324 -80.611725 4,825 85 220 128
2021-12-04 19:45:46 GMT 25.771923 -80.617363 4,825 85 220 -64
2021-12-04 19:45:37 GMT 25.771227 -80.627365 4,825 85 224 -128
2021-12-04 19:45:31 GMT 25.770493 -80.636391 4,825 84 233 64
2021-12-04 19:45:11 GMT 25.768200 -80.658463 4,825 82 231 64
2021-12-04 19:45:07 GMT 25.767454 -80.664108 4,825 80 231 -64
2021-12-04 19:44:48 GMT 25.762161 -80.687309 4,825 67 240 64
2021-12-04 19:44:37 GMT 25.757631 -80.697739 4,825 63 240 64
2021-12-04 19:44:32 GMT 25.754560 -80.704323 4,825 63 240 64
2021-12-04 19:44:25 GMT 25.751348 -80.711525 4,825 63 251 -64
2021-12-04 19:44:14 GMT 25.745064 -80.725571 4,825 63 256 -128
2021-12-04 19:44:03 GMT 25.739685 -80.736847 4,850 60 255 -64
2021-12-04 19:43:54 GMT 25.732634 -80.747696 4,850 45 255 -64
2021-12-04 19:43:47 GMT 25.726210 -80.753296 4,850 353 264 0
2021-12-04 19:43:43 GMT 25.723068 -80.755104 4,850 22 259 64
2021-12-04 19:43:33 GMT 25.710150 -80.758423 4,825 0 264 -128
2021-12-04 19:43:20 GMT 25.695532 -80.757027 4,825 354 265 64
2021-12-04 19:43:10 GMT 25.683472 -80.755516 4,825 354 264 0
2021-12-04 19:43:00 GMT 25.670673 -80.753708 4,850 352 263 -256
2021-12-04 19:42:50 GMT 25.657639 -80.750443 4,825 339 266 -64
2021-12-04 19:42:38 GMT 25.646210 -80.742439 4,850 318 266 -192
2021-12-04 19:42:34 GMT 25.642868 -80.738319 4,850 309 264 64
2021-12-04 19:42:29 GMT 25.639065 -80.731583 4,850 295 265 -64
2021-12-04 19:42:25 GMT 25.637201 -80.726501 4,850 288 265 192
2021-12-04 19:42:18 GMT 25.635818 -80.719353 4,825 274 266 0
2021-12-04 19:42:13 GMT 25.635759 -80.711472 4,825 267 268 -128
2021-12-04 19:42:08 GMT 25.636414 -80.703529 4,825 265 268 64
2021-12-04 19:42:03 GMT 25.636917 -80.698036 4,825 265 268 -128
2021-12-04 19:41:56 GMT 25.637714 -80.689499 4,825 265 268 -128
2021-12-04 19:41:50 GMT 25.638597 -80.680222 4,850 265 268 -128
2021-12-04 19:41:47 GMT 25.639156 -80.674835 4,850 265 268 64
2021-12-04 19:41:42 GMT 25.639618 -80.669556 4,825 265 268 64
2021-12-04 19:41:36 GMT 25.640368 -80.661049 4,825 265 269 -64
2021-12-04 19:41:32 GMT 25.640785 -80.655556 4,825 265 266 -64
2021-12-04 19:41:26 GMT 25.641531 -80.646797 4,825 265 267 0
2021-12-04 19:41:14 GMT 25.643097 -80.630241 4,825 265 267 0
2021-12-04 19:41:04 GMT 25.644379 -80.616096 4,825 265 268 64
2021-12-04 19:40:54 GMT 25.645395 -80.604408 4,825 265 268 64
2021-12-04 19:40:50 GMT 25.645861 -80.598862 4,825 265 268 0
2021-12-04 19:40:45 GMT 25.646420 -80.592339 4,825 265 268 64
2021-12-04 19:40:41 GMT 25.647118 -80.584663 4,825 265 268 0
2021-12-04 19:40:34 GMT 25.647816 -80.577515 4,825 264 267 0
2021-12-04 19:40:30 GMT 25.648315 -80.571800 4,825 264 266 0
2021-12-04 19:40:27 GMT 25.649048 -80.564270 4,825 264 266 0
2021-12-04 19:40:21 GMT 25.649538 -80.559013 4,825 264 266 64
2021-12-04 19:40:14 GMT 25.650423 -80.549789 4,825 264 266 64
2021-12-04 19:40:07 GMT 25.651493 -80.538391 4,825 265 266 0
2021-12-04 19:40:04 GMT 25.651819 -80.535126 4,825 265 267 -64
2021-12-04 19:39:59 GMT 25.652330 -80.529213 4,825 265 269 64
2021-12-04 19:39:53 GMT 25.653122 -80.520729 4,825 265 269 64
2021-12-04 19:39:49 GMT 25.653625 -80.515137 4,825 264 268 64
2021-12-04 19:39:43 GMT 25.654495 -80.506538 4,825 264 268 -64
2021-12-04 19:39:36 GMT 25.655403 -80.497398 4,825 264 267 64
2021-12-04 19:39:32 GMT 25.655916 -80.491959 4,825 264 268 64
2021-12-04 19:39:26 GMT 25.656754 -80.483711 4,825 264 267 64
2021-12-04 19:39:21 GMT 25.657654 -80.475410 4,825 263 268 -64
2021-12-04 19:39:18 GMT 25.658150 -80.471176 4,825 262 268 -128
2021-12-04 19:39:10 GMT 25.659407 -80.462624 4,825 258 268 128
2021-12-04 19:39:06 GMT 25.660805 -80.456612 4,825 252 268 -64
2021-12-04 19:39:00 GMT 25.663923 -80.449097 4,825 239 269 -64
2021-12-04 19:38:54 GMT 25.669090 -80.441635 4,825 232 268 64
2021-12-04 19:38:50 GMT 25.672668 -80.438179 4,825 218 268 -64
2021-12-04 19:38:45 GMT 25.676422 -80.435432 4,850 208 268 -64
2021-12-04 19:38:38 GMT 25.684500 -80.431686 4,825 196 269 192
2021-12-04 19:38:35 GMT 25.689148 -80.430550 4,825 190 268 128
2021-12-04 19:38:30 GMT 25.695557 -80.430199 4,825 176 267 -128
2021-12-04 19:38:26 GMT 25.701258 -80.430595 4,825 175 266 64
2021-12-04 19:38:18 GMT 25.709126 -80.431320 4,825 174 263 0
2021-12-04 19:38:15 GMT 25.713821 -80.431770 4,825 174 264 -64
2021-12-04 19:38:08 GMT 25.722107 -80.432587 4,825 174 263 -64
2021-12-04 19:38:04 GMT 25.727463 -80.433197 4,825 173 261 -256
2021-12-04 19:38:01 GMT 25.730759 -80.433601 4,850 172 260 -192
2021-12-04 19:37:58 GMT 25.734915 -80.434280 4,825 170 257 192
2021-12-04 19:37:51 GMT 25.742889 -80.436554 4,825 158 258 256
2021-12-04 19:37:48 GMT 25.745590 -80.437874 4,825 136 268 -64
2021-12-04 19:37:43 GMT 25.750168 -80.440979 4,825 140 266 0
2021-12-04 19:37:39 GMT 25.754467 -80.445053 4,825 106 270 -64
2021-12-04 19:37:34 GMT 25.758797 -80.451012 4,825 122 271 -64
2021-12-04 19:37:30 GMT 25.762665 -80.459846 4,850 106 270 -64
2021-12-04 19:37:26 GMT 25.762665 -80.459846 4,850 106 270 -64
2021-12-04 19:37:23 GMT 25.763870 -80.464851 4,850 101 270 -128
2021-12-04 19:37:16 GMT 25.764523 -80.473297 4,850 86 269 192
2021-12-04 19:37:13 GMT 25.764084 -80.479073 4,850 79 268 192
2021-12-04 19:37:06 GMT 25.761703 -80.488075 4,825 67 264 -128
2021-12-04 19:37:02 GMT 25.760008 -80.492264 4,825 64 262 128
2021-12-04 19:36:58 GMT 25.757492 -80.498253 4,825 64 262 -64
2021-12-04 19:36:55 GMT 25.756577 -80.500282 4,825 64 262 -64
2021-12-04 19:36:52 GMT 25.754654 -80.504860 4,825 64 263 0
2021-12-04 19:36:46 GMT 25.751999 -80.511070 4,825 65 265 -256
2021-12-04 19:36:41 GMT 25.748554 -80.519264 4,900 65 265 -960
2021-12-04 19:36:35 GMT 25.746275 -80.524658 5,000 65 263 -384
2021-12-04 19:36:31 GMT 25.743759 -80.530701 5,000 64 263 0
2021-12-04 19:36:24 GMT 25.740601 -80.538078 5,000 64 264 0
2021-12-04 19:36:20 GMT 25.738403 -80.543007 5,000 63 265 64
2021-12-04 19:36:15 GMT 25.734776 -80.551086 5,025 62 268 -512
2021-12-04 19:36:09 GMT 25.731720 -80.557152 5,075 59 270 -960
2021-12-04 19:36:04 GMT 25.728012 -80.563103 5,200 50 273 -1472
2021-12-04 19:35:59 GMT 25.724213 -80.567528 5,300 39 277 -1728
2021-12-04 19:35:54 GMT 25.717438 -80.572815 5,500 21 282 -1984
2021-12-04 19:35:50 GMT 25.712896 -80.575127 5,625 21 282 -1984
2021-12-04 19:35:42 GMT 25.703678 -80.577614 5,850 6 285 -2048
2021-12-04 19:35:39 GMT 25.699768 -80.577950 5,950 0 287 -2112
2021-12-04 19:35:33 GMT 25.690704 -80.577240 6,200 353 287 -2048
2021-12-04 19:35:27 GMT 25.684845 -80.576424 6,625 353 287 -1984
2021-12-04 19:35:21 GMT 25.676121 -80.575180 6,550 353 286 -1984
2021-12-04 19:35:14 GMT 25.666946 -80.573784 6,775 352 285 -1856
2021-12-04 19:35:11 GMT 25.662573 -80.573112 6,875 352 285 -1792
2021-12-04 19:35:07 GMT 25.657173 -80.572281 6,975 353 286 -1600
2021-12-04 19:35:01 GMT 25.648188 -80.570930 7,175 353 287 -1664
2021-12-04 19:34:57 GMT 25.644287 -80.570374 7,350 353 288 -1792
2021-12-04 19:34:52 GMT 25.638382 -80.569511 7,375 353 288 -1792
2021-12-04 19:34:49 GMT 25.634502 -80.568962 7,450 353 288 -1792
2021-12-04 19:34:46 GMT 25.629614 -80.568237 7,575 353 288 -1664
2021-12-04 19:34:40 GMT 25.620392 -80.566917 7,750 353 289 -1536
2021-12-04 19:34:35 GMT 25.615742 -80.566269 8,075 353 293 -1408
2021-12-04 19:34:32 GMT 25.611086 -80.565598 7,925 353 291 -1472
2021-12-04 19:34:28 GMT 25.604614 -80.564659 8,025 353 292 -1408
2021-12-04 19:34:25 GMT 25.601870 -80.564301 8,075 353 293 -1408
2021-12-04 19:34:20 GMT 25.595259 -80.563416 8,200 353 294 -1472
2021-12-04 19:34:15 GMT 25.588741 -80.562538 8,325 354 296 -1536
2021-12-04 19:34:11 GMT 25.582443 -80.561729 8,450 354 297 -1536
2021-12-04 19:34:06 GMT 25.574753 -80.560707 8,575 354 299 -1408
2021-12-04 19:34:01 GMT 25.568956 -80.559891 8,675 354 300 -1344
2021-12-04 19:33:54 GMT 25.559784 -80.558723 8,825 354 302 -1408
2021-12-04 19:33:50 GMT 25.552505 -80.557808 8,950 354 304 -1600
2021-12-04 19:33:45 GMT 25.544983 -80.556885 9,100 354 304 -1600
2021-12-04 19:33:40 GMT 25.539551 -80.556183 9,200 354 305 -1728
2021-12-04 19:33:34 GMT 25.530783 -80.555122 9,400 354 305 -1920
2021-12-04 19:33:29 GMT 25.515976 -80.553284 9,550 354 304 -1920
2021-12-04 19:33:24 GMT 25.515976 -80.553284 9,725 354 304 -1920
2021-12-04 19:33:19 GMT 25.510254 -80.552620 9,850 354 304 -1664
2021-12-04 19:33:12 GMT 25.500641 -80.551453 9,975 354 307 -640
2021-12-04 19:33:09 GMT 25.495514 -80.550842 9,975 354 310 -64
2021-12-04 19:33:01 GMT 25.485123 -80.549622 9,975 355 316 -64
2021-12-04 19:32:58 GMT 25.480499 -80.549164 10,000 355 319 -128
2021-12-04 19:32:52 GMT 25.471436 -80.548401 10,000 5 334 0
2021-12-04 19:32:48 GMT 25.465145 -80.548233 10,000 1 331 -64
2021-12-04 19:32:36 GMT 25.444336 -80.553055 10,000 23 346 -64
2021-12-04 19:32:27 GMT 25.433954 -80.559166 10,000 34 353 0
2021-12-04 19:32:24 GMT 25.428694 -80.563522 10,000 39 357 0
2021-12-04 19:32:17 GMT 25.420944 -80.572105 10,000 49 361 -64
2021-12-04 19:32:13 GMT 25.416916 -80.577950 10,000 56 364 -64
2021-12-04 19:32:06 GMT 25.409088 -80.595398 10,000 65 365 0
2021-12-04 19:32:03 GMT 25.409088 -80.595398 10,000 72 364 0
2021-12-04 19:31:55 GMT 25.406443 -80.607307 10,000 81 361 0
2021-12-04 19:31:52 GMT 25.405699 -80.616173 10,000 88 360 0
2021-12-04 19:31:45 GMT 25.406210 -80.627007 10,000 97 358 0
2021-12-04 19:31:41 GMT 25.407745 -80.635765 10,000 105 356 0
2021-12-04 19:31:35 GMT 25.410492 -80.644730 10,000 112 355 -64
2021-12-04 19:31:30 GMT 25.413984 -80.652550 10,025 133 352 0
2021-12-04 19:31:24 GMT 25.419151 -80.660896 10,025 128 352 -64
2021-12-04 19:31:19 GMT 25.426117 -80.669044 10,000 142 352 192
2021-12-04 19:31:14 GMT 25.431440 -80.673798 10,000 144 351 128
2021-12-04 19:31:07 GMT 25.441223 -80.680183 10,000 154 351 0
2021-12-04 19:31:04 GMT 25.445938 -80.682732 10,000 154 351 0
2021-12-04 19:30:57 GMT 25.456160 -80.688049 10,000 154 351 0
2021-12-04 19:30:53 GMT 25.461607 -80.690849 10,000 154 351 0
2021-12-04 19:30:47 GMT 25.469847 -80.695206 10,000 154 351 -64
2021-12-04 19:30:43 GMT 25.477203 -80.699005 10,000 154 350 -64
2021-12-04 19:30:40 GMT 25.481323 -80.701195 10,000 154 350 0
2021-12-04 19:30:37 GMT 25.484604 -80.702873 10,000 154 350 0
2021-12-04 19:30:35 GMT 25.487535 -80.704430 10,000 154 350 0
2021-12-04 19:30:33 GMT 25.492844 -80.707176 10,000 154 350 -64
2021-12-04 19:30:29 GMT 25.496428 -80.709038 10,000 154 350 -64
2021-12-04 19:30:28 GMT 25.508904 -80.715569 10,000 154 350 -64
2021-12-04 19:30:22 GMT 25.508904 -80.715569 10,000 154 350 -64
2021-12-04 19:30:15 GMT 25.524220 -80.723549 10,000 154 351 -64
2021-12-04 19:30:11 GMT 25.524220 -80.723549 10,000 154 351 -64
2021-12-04 19:30:01 GMT 25.540047 -80.731789 10,000 154 351 -64
2021-12-04 19:29:55 GMT 25.547823 -80.735886 10,000 154 351 -64
2021-12-04 19:29:50 GMT 25.555664 -80.739952 10,000 154 351 -64
2021-12-04 19:29:41 GMT 25.568115 -80.746407 10,000 154 351 0
2021-12-04 19:29:36 GMT 25.574963 -80.749924 10,000 154 351 -64
2021-12-04 19:29:30 GMT 25.583496 -80.754341 10,000 154 351 0
2021-12-04 19:29:28 GMT 25.603172 -80.764488 10,000 155 350 64
2021-12-04 19:29:18 GMT 25.603172 -80.764488 9,975 154 349 64
2021-12-04 19:29:14 GMT 25.608479 -80.767235 9,975 154 349 -64
2021-12-04 19:29:09 GMT 25.614437 -80.770294 10,000 154 349 -128
2021-12-04 19:29:04 GMT 25.624447 -80.775421 10,025 154 349 -384
2021-12-04 19:28:59 GMT 25.629456 -80.777992 10,050 155 350 -832
2021-12-04 19:28:56 GMT 25.635059 -80.780914 10,150 155 351 -1600
2021-12-04 19:28:50 GMT 25.643097 -80.784966 10,325 155 358 -1088
2021-12-04 19:28:47 GMT 25.647583 -80.787239 10,400 155 360 -1280
2021-12-04 19:28:43 GMT 25.655182 -80.791069 10,500 154 363 -2368
2021-12-04 19:28:38 GMT 25.660990 -80.794083 10,700 154 363 -3136
2021-12-04 19:28:35 GMT 25.666626 -80.797066 11,300 153 363 -3840
2021-12-04 19:28:32 GMT 25.670425 -80.799156 11,300 152 362 -3968
2021-12-04 19:28:28 GMT 25.676331 -80.802559 11,300 147 361 -3776
2021-12-04 19:28:25 GMT 25.680681 -80.805374 11,475 147 361 -3776
2021-12-04 19:28:23 GMT 25.683475 -80.807449 11,625 138 358 -4992
2021-12-04 19:28:20 GMT 25.688643 -80.812111 11,950 136 358 -5120
2021-12-04 19:28:16 GMT 25.691116 -80.814819 12,125 133 360 -5120
2021-12-04 19:28:12 GMT 25.697983 -80.824028 12,725 125 363 -4800
2021-12-04 19:28:09 GMT 25.698807 -80.825401 12,725 125 363 -4800
2021-12-04 19:28:08 GMT 25.699905 -80.827332 12,825 121 365 -4672
2021-12-04 19:28:04 GMT 25.703306 -80.834244 13,150 113 370 -4608
2021-12-04 19:28:02 GMT 25.704702 -80.837715 13,300 111 372 -4608
2021-12-04 19:28:00 GMT 25.705914 -80.841187 13,425 109 373 -4544
2021-12-04 19:27:52 GMT 25.709171 -80.856369 14,075 97 381 -4928
2021-12-04 19:27:46 GMT 25.709778 -80.867355 14,525 88 388 -4864
2021-12-04 19:27:42 GMT 25.709290 -80.875755 14,850 82 393 -4096
2021-12-04 19:27:38 GMT 25.708145 -80.883736 15,100 78 398 -3776
2021-12-04 19:27:35 GMT 25.706472 -80.890518 15,300 73 402 -3584
2021-12-04 19:27:31 GMT 25.702789 -80.900116 15,575 63 410 -3136
2021-12-04 19:27:26 GMT 25.698853 -80.907387 15,750 52 416 -2880
2021-12-04 19:27:19 GMT 25.689331 -80.919701 16,075 45 417 -3392
2021-12-04 19:27:14 GMT 25.683195 -80.925606 16,425 39 417 -3648
2021-12-04 19:27:11 GMT 25.678261 -80.929749 16,625 36 416 -3776
2021-12-04 19:27:09 GMT 25.675747 -80.931770 17,275 35 415 -4352
2021-12-04 19:27:05 GMT 25.668858 -80.937157 16,975 35 417 -3392
2021-12-04 19:26:59 GMT 25.657791 -80.945793 17,475 35 408 -4352
2021-12-04 19:26:55 GMT 25.653030 -80.949600 17,700 35 412 -4352
2021-12-04 19:26:48 GMT 25.643021 -80.957474 18,175 35 409 -4352
2021-12-04 19:26:44 GMT 25.636316 -80.962761 18,475 35 408 -4352
2021-12-04 19:26:39 GMT 25.626495 -80.970535 18,950 35 405 -4352
2021-12-04 19:26:34 GMT 25.620575 -80.975243 19,225 35 404 -4352
2021-12-04 19:26:30 GMT 25.614298 -80.980225 19,550 36 397 -4416
2021-12-04 19:26:24 GMT 25.605267 -80.987427 19,975 36 397 -4480
2021-12-04 19:26:17 GMT 25.589905 -80.999969 20,525 36 394 -3392
2021-12-04 19:26:13 GMT 25.589905 -80.999969 20,625 36 395 -3008
2021-12-04 19:26:09 GMT 25.583433 -81.005356 20,800 37 394 -2240
2021-12-04 19:26:05 GMT 25.576172 -81.011452 20,950 37 394 -1344
2021-12-04 19:26:02 GMT 25.574123 -81.013130 20,975 37 393 -512
2021-12-04 19:25:57 GMT 25.567474 -81.018677 21,000 37 393 -128
2021-12-04 19:25:55 GMT 25.559738 -81.025208 21,000 37 391 64
2021-12-04 19:25:52 GMT 25.559738 -81.025208 21,000 37 391 64
2021-12-04 19:25:45 GMT 25.548889 -81.034294 21,000 37 391 64
2021-12-04 19:25:42 GMT 25.544266 -81.038155 21,000 37 391 64
2021-12-04 19:25:35 GMT 25.534647 -81.046196 21,050 37 409 -1344
2021-12-04 19:25:32 GMT 25.529480 -81.050545 21,025 37 399 -512
2021-12-04 19:25:27 GMT 25.521751 -81.057022 21,075 37 405 -1088
2021-12-04 19:25:21 GMT 25.513838 -81.063660 21,200 37 409 -1344
2021-12-04 19:25:15 GMT 25.505630 -81.070557 21,300 37 411 -1088
2021-12-04 19:25:11 GMT 25.497940 -81.077019 21,350 37 410 -320
2021-12-04 19:25:03 GMT 25.486559 -81.086563 21,275 37 408 1152
2021-12-04 19:25:00 GMT 25.482651 -81.089836 21,225 37 407 1152
2021-12-04 19:24:55 GMT 25.474548 -81.096672 21,125 37 407 1216
2021-12-04 19:24:50 GMT 25.466263 -81.103615 21,025 37 406 1216
2021-12-04 19:24:44 GMT 25.458302 -81.110298 20,900 37 406 1344

Making use of Plane Finder data

You are free to use the raw flight data, aircraft information and images provided in this report for your own purposes provided the data is correctly attributed to Plane Finder. We ask that you please credit Plane Finder and link to planefinder.net in close proximity to the content.

Optionally one of the following logos (no smaller then 150x24px) can be used and must link to planefinder.net

Embedding the Plane Finder map

You are welcome to embed the Plane Finder playback map on your website to offer visitors a more interactive experience. We suggest using the following HTML code:

<iframe src="//planefinder.net/data/report/UA3678-N654RW-7700-squawk-2021-12-04/map" width="800" height="600" seamless="seamless"></iframe>

Where our data comes from

Plane Finder has a global network of data feeds and antenna radars that receive data broadcast directly from aircraft. The primary technologies used are ADS-B and MLAT. We also show feeds from the FAA and a FLARM glider feed.

Click here to find out more about the Plane Finder network.

How we collect our data